Terminal Aerodrome Forecast
Issued by NWS

Home | Current Version | Previous Version | Text Only | Print | Product List | Glossary On
Versions: 1 2 3 4 5 6 7 8 9 10 11 12
887
FTUS42 TJSJ 211746
TAFNCM
TAF
TNCM 211746Z 2118/2218 07012KT P6SM -SHRA FEW018 SCT030
     FM212300 10009KT P6SM VCSH SCT018 SCT030
     FM221300 09015KT P6SM VCSH SCT040=

USA.gov is the U.S. government's official web portal to all federal, state and local government web resources and services.